createdAt,value
2022-09-12T00:01:25.444Z,100905.00
2022-09-12T00:03:54.203Z,100905.00
2022-09-12T00:06:24.306Z,100903.34
2022-09-12T00:08:55.456Z,100903.00
2022-09-12T00:11:23.899Z,100902.00
2022-09-12T00:13:56.236Z,100899.50
2022-09-12T00:16:26.064Z,100893.31
2022-09-12T00:18:56.458Z,100893.00
2022-09-12T00:21:24.566Z,100894.00
2022-09-12T00:23:52.635Z,100898.00
2022-09-12T00:26:21.747Z,100895.34
2022-09-12T00:28:50.344Z,100886.66
2022-09-12T00:31:21.493Z,100877.97
2022-09-12T00:33:49.229Z,100881.94
2022-09-12T00:36:19.163Z,100890.50
2022-09-12T00:38:47.705Z,100881.66
2022-09-12T00:41:18.960Z,100884.16
2022-09-12T00:43:49.625Z,100878.81
2022-09-12T00:46:28.036Z,100883.94
2022-09-12T00:49:02.771Z,100875.09
2022-09-12T00:51:33.928Z,100878.09
2022-09-12T00:54:06.996Z,100871.94
2022-09-12T00:56:36.530Z,100871.94
2022-09-12T00:59:08.371Z,100855.22
2022-09-12T01:01:38.813Z,100871.75
2022-09-12T01:04:06.771Z,100868.25
2022-09-12T01:06:38.444Z,100857.94
2022-09-12T01:09:06.487Z,100867.59
2022-09-12T01:11:38.419Z,100868.59
2022-09-12T01:14:07.428Z,100869.25
2022-09-12T01:16:38.109Z,100869.56
2022-09-12T01:19:26.430Z,100872.06
2022-09-12T01:22:12.475Z,100863.91
2022-09-12T01:25:01.308Z,100877.25
2022-09-12T01:27:45.048Z,100872.75
2022-09-12T01:30:39.858Z,100863.22
2022-09-12T01:33:24.919Z,100858.91
2022-09-12T01:36:02.932Z,100869.56
2022-09-12T01:38:39.670Z,100853.25
2022-09-12T01:41:18.930Z,100863.56
2022-09-12T01:43:53.451Z,100857.53
2022-09-12T01:46:28.605Z,100864.88
2022-09-12T01:49:01.498Z,100856.88
2022-09-12T01:51:35.952Z,100857.19
2022-09-12T01:54:09.744Z,100855.19
2022-09-12T01:56:41.303Z,100842.50
2022-09-12T01:59:16.014Z,100854.19
2022-09-12T02:01:49.692Z,100852.31
2022-09-12T02:04:21.914Z,100851.69
2022-09-12T02:06:53.354Z,100849.84
2022-09-12T02:09:24.875Z,100848.31
2022-09-12T02:11:57.468Z,100828.00
2022-09-12T02:14:27.695Z,100839.50
2022-09-12T02:17:02.283Z,100839.19
2022-09-12T02:19:35.374Z,100836.53
2022-09-12T02:22:05.858Z,100835.69
2022-09-12T02:24:39.655Z,100839.66
2022-09-12T02:27:13.623Z,100830.16
2022-09-12T02:29:41.709Z,100828.84
2022-09-12T02:32:20.034Z,100830.16
2022-09-12T02:34:53.839Z,100827.66
2022-09-12T02:37:30.260Z,100831.31
2022-09-12T02:39:58.930Z,100803.34
2022-09-12T02:42:27.049Z,100815.84
2022-09-12T02:44:57.130Z,100822.31
2022-09-12T02:47:29.892Z,100823.16
2022-09-12T02:49:57.977Z,100828.16
2022-09-12T02:52:26.564Z,100824.50
2022-09-12T02:54:56.280Z,100822.16
2022-09-12T02:57:24.059Z,100810.47
2022-09-12T02:59:56.715Z,100812.13
2022-09-12T03:02:33.331Z,100808.47
2022-09-12T03:05:15.488Z,100807.94
2022-09-12T03:08:07.503Z,100806.94
2022-09-12T03:10:44.060Z,100807.63
2022-09-12T03:13:21.679Z,100804.13
2022-09-12T03:16:00.403Z,100805.13
2022-09-12T03:18:43.648Z,100803.44
2022-09-12T03:21:17.932Z,100810.97
2022-09-12T03:23:52.618Z,100806.09
2022-09-12T03:26:28.534Z,100808.78
2022-09-12T03:28:59.202Z,100808.09
2022-09-12T03:31:27.044Z,100807.78
2022-09-12T03:33:56.127Z,100811.13
2022-09-12T03:36:26.527Z,100797.44
2022-09-12T03:38:54.434Z,100801.41
2022-09-12T03:41:22.620Z,100810.75
2022-09-12T03:43:50.423Z,100811.06
2022-09-12T03:46:18.196Z,100811.06
2022-09-12T03:48:45.997Z,100803.41
2022-09-12T03:51:15.109Z,100806.06
2022-09-12T03:53:43.305Z,100811.38
2022-09-12T03:56:13.214Z,100800.06
2022-09-12T03:58:41.339Z,100805.38
2022-09-12T04:01:12.570Z,100800.06
2022-09-12T04:03:41.023Z,100804.91
2022-09-12T04:06:09.823Z,100801.91
2022-09-12T04:08:39.640Z,100800.41
2022-09-12T04:11:08.384Z,100802.22
2022-09-12T04:13:36.560Z,100802.38
2022-09-12T04:16:05.476Z,100777.69
2022-09-12T04:18:33.276Z,100797.38
2022-09-12T04:21:05.020Z,100796.38
2022-09-12T04:23:32.778Z,100794.56
2022-09-12T04:26:06.356Z,100800.88
2022-09-12T04:28:34.838Z,100787.88
2022-09-12T04:31:04.765Z,100794.03
2022-09-12T04:33:32.700Z,100784.53
2022-09-12T04:36:05.170Z,100786.03
2022-09-12T04:38:33.146Z,100784.53
2022-09-12T04:41:02.403Z,100779.88
2022-09-12T04:43:30.071Z,100784.69
2022-09-12T04:45:58.408Z,100782.03
2022-09-12T04:48:27.015Z,100784.03
2022-09-12T04:50:54.699Z,100780.53
2022-09-12T04:53:22.398Z,100779.97
2022-09-12T04:55:50.091Z,100783.31
2022-09-12T04:58:19.204Z,100781.03
2022-09-12T05:00:46.875Z,100777.03
2022-09-12T05:03:14.703Z,100771.72
2022-09-12T05:05:44.279Z,100766.38
2022-09-12T05:08:13.184Z,100768.53
2022-09-12T05:10:41.416Z,100757.22
2022-09-12T05:13:09.399Z,100752.06
2022-09-12T05:15:38.999Z,100753.41
2022-09-12T05:18:07.500Z,100762.06
2022-09-12T05:20:35.447Z,100752.56
2022-09-12T05:23:03.208Z,100759.41
2022-09-12T05:25:31.179Z,100756.72
2022-09-12T05:27:58.963Z,100764.41
2022-09-12T05:30:26.653Z,100759.75
2022-09-12T05:32:56.323Z,100752.44
2022-09-12T05:35:24.096Z,100755.28
2022-09-12T05:37:52.510Z,100757.06
2022-09-12T05:40:23.291Z,100759.75
2022-09-12T05:42:51.030Z,100766.75
2022-09-12T05:45:18.726Z,100757.44
2022-09-12T05:47:47.791Z,100755.44
2022-09-12T05:50:17.100Z,100761.75
2022-09-12T05:52:46.058Z,100762.44
2022-09-12T05:55:14.339Z,100773.25
2022-09-12T05:57:45.829Z,100773.81
2022-09-12T06:00:15.528Z,100775.47
2022-09-12T06:02:43.600Z,100778.31
2022-09-12T06:05:11.777Z,100772.31
2022-09-12T06:07:40.895Z,100787.81
2022-09-12T06:10:09.274Z,100780.16
2022-09-12T06:12:36.960Z,100785.84
2022-09-12T06:15:05.171Z,100787.81
2022-09-12T06:17:33.304Z,100781.50
2022-09-12T06:20:01.798Z,100785.00
2022-09-12T06:22:29.494Z,100778.34
2022-09-12T06:24:58.517Z,100777.88
2022-09-12T06:27:26.608Z,100780.53
2022-09-12T06:29:54.343Z,100776.56
2022-09-12T06:32:22.025Z,100777.53
2022-09-12T06:34:49.816Z,100782.53
2022-09-12T06:37:17.527Z,100790.03
2022-09-12T06:39:45.277Z,100790.56
2022-09-12T06:42:14.863Z,100783.91
2022-09-12T06:44:52.022Z,100784.22
2022-09-12T06:47:20.622Z,100791.72
2022-09-12T06:49:48.320Z,100790.25
2022-09-12T06:52:16.025Z,100786.38
2022-09-12T06:54:43.667Z,100792.56
2022-09-12T06:57:11.364Z,100802.72
2022-09-12T06:59:40.410Z,100795.94
2022-09-12T07:02:09.949Z,100791.28
2022-09-12T07:04:37.734Z,100788.41
2022-09-12T07:07:05.757Z,100783.59
2022-09-12T07:09:33.467Z,100791.44
2022-09-12T07:12:04.279Z,100776.91
2022-09-12T07:14:32.033Z,100780.94
2022-09-12T07:17:01.475Z,100782.06
2022-09-12T07:19:29.609Z,100783.41
2022-09-12T07:21:58.795Z,100789.06
2022-09-12T07:24:26.701Z,100787.06
2022-09-12T07:26:54.572Z,100774.22
2022-09-12T07:29:38.127Z,100786.91
2022-09-12T07:32:07.766Z,100794.56
2022-09-12T07:34:36.081Z,100797.22
2022-09-12T07:37:04.015Z,100797.56
2022-09-12T07:39:32.344Z,100804.41
2022-09-12T07:42:00.394Z,100802.88
2022-09-12T07:44:28.148Z,100803.88
2022-09-12T07:46:56.128Z,100800.53
2022-09-12T07:49:25.242Z,100791.00
2022-09-12T07:51:53.145Z,100790.81
2022-09-12T07:54:21.011Z,100794.00
2022-09-12T07:56:48.863Z,100799.84
2022-09-12T07:59:29.956Z,100799.13
2022-09-12T08:02:03.899Z,100790.81
2022-09-12T08:04:33.030Z,100798.16
2022-09-12T08:07:00.722Z,100795.78
2022-09-12T08:09:28.423Z,100795.28
2022-09-12T08:11:56.481Z,100791.44
2022-09-12T08:14:24.291Z,100795.44
2022-09-12T08:16:51.980Z,100798.28
2022-09-12T08:19:19.868Z,100804.13
2022-09-12T08:21:48.999Z,100801.81
2022-09-12T08:24:16.811Z,100804.97
2022-09-12T08:26:44.462Z,100805.28
2022-09-12T08:29:12.660Z,100807.28
2022-09-12T08:31:42.435Z,100805.44
2022-09-12T08:34:10.853Z,100798.06
2022-09-12T08:36:38.605Z,100789.22
2022-09-12T08:39:08.892Z,100787.84
2022-09-12T08:41:40.707Z,100792.84
2022-09-12T08:44:27.706Z,100789.50
2022-09-12T08:47:11.920Z,100798.69
2022-09-12T08:49:48.963Z,100794.34
2022-09-12T08:52:22.227Z,100803.38
2022-09-12T08:54:51.848Z,100803.69
2022-09-12T08:57:19.567Z,100795.00
2022-09-12T08:59:48.332Z,100798.00
2022-09-12T09:02:42.497Z,100797.13
2022-09-12T09:05:20.134Z,100792.41
2022-09-12T09:08:05.691Z,100788.84
2022-09-12T09:10:43.719Z,100783.16
2022-09-12T09:13:39.219Z,100782.97
2022-09-12T09:16:13.930Z,100788.50
2022-09-12T09:18:44.698Z,100789.69
2022-09-12T09:21:22.817Z,100784.47
2022-09-12T09:23:54.403Z,100772.25
2022-09-12T09:26:29.085Z,100774.69
2022-09-12T09:29:00.492Z,100782.84
2022-09-12T09:31:34.641Z,100774.25
2022-09-12T09:34:02.488Z,100775.25
2022-09-12T09:36:41.956Z,100767.25
2022-09-12T09:39:17.503Z,100771.25
2022-09-12T09:42:00.207Z,100759.75
2022-09-12T09:44:29.902Z,100766.75
2022-09-12T09:47:00.434Z,100769.72
2022-09-12T09:49:32.276Z,100758.09
2022-09-12T09:52:01.790Z,100765.03
2022-09-12T09:54:35.936Z,100757.28
2022-09-12T09:57:05.599Z,100758.94
2022-09-12T09:59:35.012Z,100758.47
2022-09-12T10:02:05.339Z,100750.72
2022-09-12T10:04:39.359Z,100749.34
2022-09-12T10:07:19.342Z,100750.41
2022-09-12T10:10:06.990Z,100738.44
2022-09-12T10:12:36.176Z,100740.56
2022-09-12T10:15:17.989Z,100742.44
2022-09-12T10:17:47.338Z,100737.97
2022-09-12T10:20:33.062Z,100739.38
2022-09-12T10:23:02.377Z,100741.44
2022-09-12T10:25:30.342Z,100746.72
2022-09-12T10:28:02.804Z,100740.13
2022-09-12T10:30:30.728Z,100751.22
2022-09-12T10:33:06.799Z,100745.81
2022-09-12T10:35:46.451Z,100735.97
2022-09-12T10:38:18.870Z,100730.59
2022-09-12T10:40:46.597Z,100738.69
2022-09-12T10:43:27.470Z,100730.63
2022-09-12T10:45:58.874Z,100725.66
2022-09-12T10:48:30.270Z,100731.41
2022-09-12T10:50:59.942Z,100735.78
2022-09-12T10:53:34.119Z,100725.19
2022-09-12T10:56:09.407Z,100730.56
2022-09-12T10:58:53.609Z,100721.41
2022-09-12T11:01:36.305Z,100722.53
2022-09-12T11:04:20.078Z,100716.47
2022-09-12T11:06:56.427Z,100720.38
2022-09-12T11:09:33.604Z,100712.22
2022-09-12T11:12:10.022Z,100709.31
2022-09-12T11:14:53.619Z,100701.28
2022-09-12T11:17:30.423Z,100693.69
2022-09-12T11:20:27.316Z,100698.47
2022-09-12T11:23:27.691Z,100691.22
2022-09-12T11:26:04.102Z,100692.91
2022-09-12T11:28:47.077Z,100690.25
2022-09-12T11:31:32.833Z,100674.41
2022-09-12T11:34:03.796Z,100682.81
2022-09-12T11:36:39.913Z,100679.63
2022-09-12T11:39:15.799Z,100682.75
2022-09-12T11:41:47.954Z,100672.75
2022-09-12T11:44:22.249Z,100672.53
2022-09-12T11:46:52.230Z,100679.13
2022-09-12T11:49:33.553Z,100673.50
2022-09-12T11:52:08.358Z,100678.94
2022-09-12T11:54:40.759Z,100683.16
2022-09-12T11:57:17.069Z,100684.56
2022-09-12T11:59:50.775Z,100678.47
2022-09-12T12:02:26.426Z,100674.09
2022-09-12T12:05:05.952Z,100679.34
2022-09-12T12:07:45.585Z,100665.72
2022-09-12T12:10:26.643Z,100671.91
2022-09-12T12:12:56.095Z,100671.09
2022-09-12T12:15:25.258Z,100669.78
2022-09-12T12:18:04.632Z,100655.63
2022-09-12T12:20:32.615Z,100659.63
2022-09-12T12:23:00.925Z,100659.66
2022-09-12T12:25:41.511Z,100656.94
2022-09-12T12:28:09.580Z,100657.19
2022-09-12T12:31:05.388Z,100659.47
2022-09-12T12:34:01.739Z,100641.72
2022-09-12T12:36:50.164Z,100646.47
2022-09-12T12:40:03.102Z,100644.81
2022-09-12T12:43:05.116Z,100641.72
2022-09-12T12:46:06.930Z,100623.75
2022-09-12T12:48:58.870Z,100628.03
2022-09-12T12:51:51.231Z,100629.69
2022-09-12T12:54:49.497Z,100618.13
2022-09-12T12:57:20.757Z,100612.09
2022-09-12T12:59:51.869Z,100599.69
2022-09-12T13:02:28.870Z,100603.91
2022-09-12T13:05:01.047Z,100601.19
2022-09-12T13:07:33.284Z,100594.75
2022-09-12T13:10:02.286Z,100585.13
2022-09-12T13:12:33.971Z,100593.84
2022-09-12T13:15:30.343Z,100585.66
2022-09-12T13:18:02.561Z,100581.97
2022-09-12T13:20:39.263Z,100578.88
2022-09-12T13:23:07.001Z,100572.97
2022-09-12T13:25:36.635Z,100573.91
2022-09-12T13:28:07.735Z,100565.28
2022-09-12T13:30:41.518Z,100569.50
2022-09-12T13:33:20.649Z,100565.66
2022-09-12T13:36:31.639Z,100563.41
2022-09-12T13:39:11.808Z,100573.69
2022-09-12T13:41:57.716Z,100577.69
2022-09-12T13:44:27.467Z,100574.03
2022-09-12T13:47:02.729Z,100568.63
2022-09-12T13:49:35.321Z,100557.50
2022-09-12T13:52:07.585Z,100566.28
2022-09-12T13:54:40.156Z,100555.41
2022-09-12T13:57:07.893Z,100552.75
2022-09-12T13:59:44.516Z,100545.81
2022-09-12T14:02:20.289Z,100543.94
2022-09-12T14:05:06.550Z,100550.59
2022-09-12T14:07:40.061Z,100544.41
2022-09-12T14:10:08.702Z,100539.91
2022-09-12T14:12:40.212Z,100546.00
2022-09-12T14:15:16.928Z,100537.50
2022-09-12T14:17:52.036Z,100534.31
2022-09-12T14:20:23.195Z,100533.56
2022-09-12T14:22:53.794Z,100521.66
2022-09-12T14:25:24.502Z,100517.13
2022-09-12T14:27:55.326Z,100509.84
2022-09-12T14:30:26.212Z,100511.97
2022-09-12T14:33:18.165Z,100500.59
2022-09-12T14:35:47.864Z,100489.91
2022-09-12T14:38:23.414Z,100503.19
2022-09-12T14:40:54.301Z,100490.81
2022-09-12T14:43:27.593Z,100488.50
2022-09-12T14:45:57.343Z,100486.22
2022-09-12T14:48:25.331Z,100485.47
2022-09-12T14:50:55.007Z,100475.94
2022-09-12T14:53:31.304Z,100478.06
2022-09-12T14:56:07.140Z,100481.88
2022-09-12T14:58:35.135Z,100478.56
2022-09-12T15:01:05.814Z,100472.28
2022-09-12T15:03:36.788Z,100471.22
2022-09-12T15:06:07.976Z,100470.25
2022-09-12T15:08:37.168Z,100470.47
2022-09-12T15:11:07.927Z,100468.47
2022-09-12T15:13:41.081Z,100461.03
2022-09-12T15:16:11.285Z,100456.16
2022-09-12T15:18:39.368Z,100462.44
2022-09-12T15:21:08.866Z,100465.97
2022-09-12T15:23:41.395Z,100475.28
2022-09-12T15:26:13.253Z,100459.72
2022-09-12T15:28:41.242Z,100459.72
2022-09-12T15:31:14.831Z,100454.38
2022-09-12T15:33:42.665Z,100444.63
2022-09-12T15:36:15.684Z,100449.56
2022-09-12T15:38:45.496Z,100437.13
2022-09-12T15:41:16.748Z,100443.03
2022-09-12T15:43:44.819Z,100439.94
2022-09-12T15:46:13.717Z,100430.28
2022-09-12T15:48:41.805Z,100434.63
2022-09-12T15:51:15.479Z,100427.81
2022-09-12T15:53:45.231Z,100417.22
2022-09-12T15:56:13.291Z,100422.94
2022-09-12T15:58:57.088Z,100423.97
2022-09-12T16:01:25.347Z,100423.72
2022-09-12T16:03:53.164Z,100424.41
2022-09-12T16:06:20.906Z,100416.09
2022-09-12T16:08:50.257Z,100417.19
2022-09-12T16:11:22.357Z,100396.13
2022-09-12T16:13:50.356Z,100417.25
2022-09-12T16:16:18.079Z,100403.59
2022-09-12T16:18:46.000Z,100405.28
2022-09-12T16:21:15.531Z,100400.50
2022-09-12T16:23:43.971Z,100397.44
2022-09-12T16:26:13.223Z,100387.53
2022-09-12T16:28:41.195Z,100383.78
2022-09-12T16:31:11.821Z,100381.25
2022-09-12T16:33:40.607Z,100372.56
2022-09-12T16:36:10.343Z,100380.06
2022-09-12T16:38:42.354Z,100392.28
2022-09-12T16:41:10.440Z,100385.03
2022-09-12T16:43:39.959Z,100378.41
2022-09-12T16:46:10.250Z,100379.47
2022-09-12T16:48:38.886Z,100365.22
2022-09-12T16:51:07.797Z,100370.63
2022-09-12T16:53:37.939Z,100371.88
2022-09-12T16:56:09.431Z,100382.88
2022-09-12T16:58:42.034Z,100376.47
2022-09-12T17:01:12.144Z,100364.94
2022-09-12T17:03:40.502Z,100365.38
2022-09-12T17:06:10.956Z,100359.81
2022-09-12T17:08:40.683Z,100355.09
2022-09-12T17:11:10.679Z,100351.56
2022-09-12T17:14:03.193Z,100359.47
2022-09-12T17:16:31.142Z,100349.00
2022-09-12T17:18:58.919Z,100347.13
2022-09-12T17:21:26.698Z,100347.78
2022-09-12T17:23:54.418Z,100358.13
2022-09-12T17:26:22.224Z,100350.09
2022-09-12T17:28:51.279Z,100353.63
2022-09-12T17:31:19.754Z,100350.31
2022-09-12T17:33:47.813Z,100348.28
2022-09-12T17:36:18.749Z,100357.84
2022-09-12T17:38:47.358Z,100340.88
2022-09-12T17:41:17.836Z,100339.00
2022-09-12T17:43:46.392Z,100340.88
2022-09-12T17:46:15.646Z,100329.31
2022-09-12T17:48:43.702Z,100337.22
2022-09-12T17:51:13.431Z,100337.69
2022-09-12T17:53:41.642Z,100345.34
2022-09-12T17:56:10.917Z,100334.41
2022-09-12T17:58:39.244Z,100343.13
2022-09-12T18:01:26.664Z,100343.53
2022-09-12T18:03:56.718Z,100335.28
2022-09-12T18:06:25.318Z,100342.50
2022-09-12T18:08:53.055Z,100330.75
2022-09-12T18:11:20.947Z,100342.94
2022-09-12T18:13:48.769Z,100337.16
2022-09-12T18:16:17.047Z,100329.31
2022-09-12T18:18:44.822Z,100346.66
2022-09-12T18:21:14.309Z,100338.63
2022-09-12T18:23:42.055Z,100344.00
2022-09-12T18:26:12.499Z,100326.25
2022-09-12T18:28:42.663Z,100325.41
2022-09-12T18:31:15.604Z,100319.22
2022-09-12T18:33:43.865Z,100323.34
2022-09-12T18:36:14.839Z,100328.72
2022-09-12T18:38:43.231Z,100327.09
2022-09-12T18:41:12.414Z,100338.25
2022-09-12T18:43:40.108Z,100332.44
2022-09-12T18:46:09.603Z,100324.81
2022-09-12T18:48:37.581Z,100337.41
2022-09-12T18:51:08.008Z,100336.59
2022-09-12T18:53:37.814Z,100328.31
2022-09-12T18:56:09.276Z,100327.91
2022-09-12T18:58:37.103Z,100332.84
2022-09-12T19:01:12.947Z,100328.72
2022-09-12T19:03:40.729Z,100328.50
2022-09-12T19:06:11.730Z,100330.97
2022-09-12T19:08:41.417Z,100323.31
2022-09-12T19:11:10.205Z,100323.09
2022-09-12T19:13:39.784Z,100314.44
2022-09-12T19:16:10.022Z,100316.72
2022-09-12T19:18:38.775Z,100321.25
2022-09-12T19:21:07.940Z,100321.47
2022-09-12T19:23:36.658Z,100317.31
2022-09-12T19:26:07.829Z,100316.06
2022-09-12T19:28:36.212Z,100315.47
2022-09-12T19:31:05.636Z,100308.00
2022-09-12T19:33:33.765Z,100309.28
2022-09-12T19:36:02.709Z,100298.50
2022-09-12T19:38:31.054Z,100283.22
2022-09-12T19:41:00.215Z,100292.34
2022-09-12T19:43:30.584Z,100299.75
2022-09-12T19:45:58.612Z,100312.56
2022-09-12T19:48:26.598Z,100311.31
2022-09-12T19:50:54.432Z,100329.50
2022-09-12T19:53:22.198Z,100324.34
2022-09-12T19:55:50.040Z,100293.13
2022-09-12T19:58:17.787Z,100316.69
2022-09-12T20:00:46.923Z,100288.97
2022-09-12T20:03:14.608Z,100324.94
2022-09-12T20:05:42.994Z,100324.50
2022-09-12T20:08:10.787Z,100325.56
2022-09-12T20:10:38.471Z,100316.69
2022-09-12T20:13:07.260Z,100282.75
2022-09-12T20:15:35.006Z,100323.91
2022-09-12T20:18:04.282Z,100320.41
2022-09-12T20:20:32.629Z,100322.88
2022-09-12T20:23:00.361Z,100312.56
2022-09-12T20:25:28.193Z,100321.22
2022-09-12T20:27:59.937Z,100324.75
2022-09-12T20:30:28.210Z,100284.41
2022-09-12T20:32:55.925Z,100321.19
2022-09-12T20:35:25.779Z,100333.38
2022-09-12T20:37:53.554Z,100323.69
2022-09-12T20:40:21.350Z,100321.19
2022-09-12T20:42:49.316Z,100322.03
2022-09-12T20:45:17.056Z,100320.16
2022-09-12T20:47:44.813Z,100312.72
2022-09-12T20:50:12.757Z,100294.75
2022-09-12T20:52:41.905Z,100313.75
2022-09-12T20:55:10.872Z,100315.81
2022-09-12T20:57:38.609Z,100311.66
2022-09-12T21:00:09.021Z,100311.88
2022-09-12T21:02:36.840Z,100296.78
2022-09-12T21:05:04.999Z,100291.00
2022-09-12T21:07:32.799Z,100285.56
2022-09-12T21:10:01.899Z,100287.41
2022-09-12T21:12:29.623Z,100295.47
2022-09-12T21:14:57.386Z,100288.69
2022-09-12T21:17:25.583Z,100286.38
2022-09-12T21:19:53.371Z,100289.06
2022-09-12T21:22:21.062Z,100272.34
2022-09-12T21:24:48.790Z,100275.66
2022-09-12T21:27:17.862Z,100270.28
2022-09-12T21:29:45.591Z,100267.81
2022-09-12T21:32:14.379Z,100270.28
2022-09-12T21:34:42.201Z,100277.50
2022-09-12T21:37:09.977Z,100270.28
2022-09-12T21:39:37.752Z,100269.66
2022-09-12T21:42:05.589Z,100273.59
2022-09-12T21:44:34.641Z,100237.84
2022-09-12T21:47:02.392Z,100284.34
2022-09-12T21:49:30.087Z,100274.22
2022-09-12T21:51:57.909Z,100279.81
2022-09-12T21:54:25.633Z,100267.38
2022-09-12T21:56:53.355Z,100264.91
2022-09-12T21:59:21.310Z,100273.19
2022-09-12T22:01:50.480Z,100268.00
2022-09-12T22:04:18.220Z,100261.19
2022-09-12T22:06:45.905Z,100277.69
2022-09-12T22:09:14.082Z,100278.50
2022-09-12T22:11:41.784Z,100267.16
2022-09-12T22:14:09.491Z,100259.09
2022-09-12T22:16:37.232Z,100262.00
2022-09-12T22:19:06.266Z,100279.97
2022-09-12T22:21:33.959Z,100281.19
2022-09-12T22:24:19.167Z,100281.81
2022-09-12T22:26:47.393Z,100278.91
2022-09-12T22:29:15.149Z,100281.78
2022-09-12T22:31:43.128Z,100280.13
2022-09-12T22:34:12.329Z,100275.97
2022-09-12T22:36:40.496Z,100279.28
2022-09-12T22:39:08.712Z,100278.22
2022-09-12T22:41:36.415Z,100285.66
2022-09-12T22:44:04.159Z,100291.63
2022-09-12T22:46:32.488Z,100303.56
2022-09-12T22:49:00.404Z,100298.59
2022-09-12T22:51:29.458Z,100270.88
2022-09-12T22:53:57.458Z,100299.41
2022-09-12T22:56:25.695Z,100284.47
2022-09-12T22:58:53.820Z,100298.75
2022-09-12T23:01:21.639Z,100283.47
2022-09-12T23:03:49.440Z,100289.84
2022-09-12T23:06:20.482Z,100289.22
2022-09-12T23:08:49.564Z,100281.06
2022-09-12T23:11:19.138Z,100292.69
2022-09-12T23:13:48.855Z,100275.69
2022-09-12T23:16:19.287Z,100288.47
2022-09-12T23:18:47.275Z,100289.91
2022-09-12T23:21:17.291Z,100281.63
2022-09-12T23:23:45.388Z,100258.69
2022-09-12T23:26:17.244Z,100278.13
2022-09-12T23:28:50.139Z,100276.63
2022-09-12T23:31:18.567Z,100275.59
2022-09-12T23:33:46.938Z,100265.84
2022-09-12T23:36:15.128Z,100246.56
2022-09-12T23:38:44.723Z,100263.56
2022-09-12T23:41:15.191Z,100262.91
2022-09-12T23:43:45.256Z,100264.75
2022-09-12T23:46:13.881Z,100267.25
2022-09-12T23:48:42.302Z,100264.78
2022-09-12T23:51:11.153Z,100224.88
2022-09-12T23:53:39.212Z,100259.63
2022-09-12T23:56:07.598Z,100259.00
2022-09-12T23:58:36.881Z,100258.16
